sensor_id;sensor_type;location;lat;lon;timestamp;P1;durP1;ratioP1;P2;durP2;ratioP2
1977;SDS011;989;53.016;8.346;2024-03-22T00:00:06;17.37;;;13.50;;
1977;SDS011;989;53.016;8.346;2024-03-22T00:02:36;22.73;;;13.53;;
1977;SDS011;989;53.016;8.346;2024-03-22T00:05:02;23.40;;;15.63;;
1977;SDS011;989;53.016;8.346;2024-03-22T00:07:27;21.17;;;13.93;;
1977;SDS011;989;53.016;8.346;2024-03-22T00:09:52;20.20;;;14.60;;
1977;SDS011;989;53.016;8.346;2024-03-22T00:12:18;22.50;;;15.63;;
1977;SDS011;989;53.016;8.346;2024-03-22T00:14:43;21.37;;;14.43;;
1977;SDS011;989;53.016;8.346;2024-03-22T00:17:09;20.33;;;14.40;;
1977;SDS011;989;53.016;8.346;2024-03-22T00:19:34;24.73;;;15.47;;
1977;SDS011;989;53.016;8.346;2024-03-22T00:22:00;23.30;;;15.37;;
1977;SDS011;989;53.016;8.346;2024-03-22T00:24:25;22.90;;;16.60;;
1977;SDS011;989;53.016;8.346;2024-03-22T00:26:50;22.53;;;14.10;;
1977;SDS011;989;53.016;8.346;2024-03-22T00:29:16;23.53;;;16.03;;
1977;SDS011;989;53.016;8.346;2024-03-22T00:31:41;18.93;;;13.80;;
1977;SDS011;989;53.016;8.346;2024-03-22T00:34:06;21.90;;;15.00;;
1977;SDS011;989;53.016;8.346;2024-03-22T00:36:32;24.47;;;15.57;;
1977;SDS011;989;53.016;8.346;2024-03-22T00:38:58;20.20;;;14.70;;
1977;SDS011;989;53.016;8.346;2024-03-22T00:41:23;25.03;;;14.67;;
1977;SDS011;989;53.016;8.346;2024-03-22T00:43:49;22.47;;;15.80;;
1977;SDS011;989;53.016;8.346;2024-03-22T00:46:14;23.60;;;14.50;;
1977;SDS011;989;53.016;8.346;2024-03-22T00:48:40;23.87;;;14.17;;
1977;SDS011;989;53.016;8.346;2024-03-22T00:51:06;24.53;;;16.00;;
1977;SDS011;989;53.016;8.346;2024-03-22T00:53:32;22.80;;;16.63;;
1977;SDS011;989;53.016;8.346;2024-03-22T00:55:57;32.47;;;17.77;;
1977;SDS011;989;53.016;8.346;2024-03-22T00:58:24;27.50;;;17.40;;
1977;SDS011;989;53.016;8.346;2024-03-22T01:00:51;28.90;;;15.50;;
1977;SDS011;989;53.016;8.346;2024-03-22T01:03:16;29.40;;;19.67;;
1977;SDS011;989;53.016;8.346;2024-03-22T01:05:42;24.00;;;16.53;;
1977;SDS011;989;53.016;8.346;2024-03-22T01:08:07;26.33;;;17.40;;
1977;SDS011;989;53.016;8.346;2024-03-22T01:10:33;27.37;;;17.63;;
1977;SDS011;989;53.016;8.346;2024-03-22T01:12:59;26.63;;;15.90;;
1977;SDS011;989;53.016;8.346;2024-03-22T01:15:25;20.53;;;15.10;;
1977;SDS011;989;53.016;8.346;2024-03-22T01:17:50;26.30;;;17.00;;
1977;SDS011;989;53.016;8.346;2024-03-22T01:20:17;28.20;;;18.97;;
1977;SDS011;989;53.016;8.346;2024-03-22T01:22:42;29.40;;;19.93;;
1977;SDS011;989;53.016;8.346;2024-03-22T01:25:08;26.77;;;18.37;;
1977;SDS011;989;53.016;8.346;2024-03-22T01:27:34;29.93;;;20.17;;
1977;SDS011;989;53.016;8.346;2024-03-22T01:30:01;26.70;;;17.50;;
1977;SDS011;989;53.016;8.346;2024-03-22T01:32:26;28.67;;;18.40;;
1977;SDS011;989;53.016;8.346;2024-03-22T01:34:51;31.37;;;18.67;;
1977;SDS011;989;53.016;8.346;2024-03-22T01:37:17;28.67;;;18.67;;
1977;SDS011;989;53.016;8.346;2024-03-22T01:39:42;29.07;;;19.00;;
1977;SDS011;989;53.016;8.346;2024-03-22T01:42:08;27.63;;;17.97;;
1977;SDS011;989;53.016;8.346;2024-03-22T01:44:33;29.33;;;19.80;;
1977;SDS011;989;53.016;8.346;2024-03-22T01:46:59;29.20;;;19.50;;
1977;SDS011;989;53.016;8.346;2024-03-22T01:49:27;29.07;;;19.00;;
1977;SDS011;989;53.016;8.346;2024-03-22T01:51:52;31.50;;;19.40;;
1977;SDS011;989;53.016;8.346;2024-03-22T01:54:19;32.00;;;18.67;;
1977;SDS011;989;53.016;8.346;2024-03-22T01:56:45;28.50;;;19.20;;
1977;SDS011;989;53.016;8.346;2024-03-22T01:59:11;28.77;;;19.67;;
1977;SDS011;989;53.016;8.346;2024-03-22T02:01:37;31.10;;;20.60;;
1977;SDS011;989;53.016;8.346;2024-03-22T02:04:02;29.80;;;19.80;;
1977;SDS011;989;53.016;8.346;2024-03-22T02:06:28;31.83;;;19.67;;
1977;SDS011;989;53.016;8.346;2024-03-22T02:08:53;31.97;;;19.57;;
1977;SDS011;989;53.016;8.346;2024-03-22T02:11:19;34.90;;;20.70;;
1977;SDS011;989;53.016;8.346;2024-03-22T02:13:44;30.53;;;19.80;;
1977;SDS011;989;53.016;8.346;2024-03-22T02:16:10;28.73;;;20.67;;
1977;SDS011;989;53.016;8.346;2024-03-22T02:18:35;33.70;;;19.37;;
1977;SDS011;989;53.016;8.346;2024-03-22T02:21:00;35.17;;;20.17;;
1977;SDS011;989;53.016;8.346;2024-03-22T02:23:32;28.10;;;18.47;;
1977;SDS011;989;53.016;8.346;2024-03-22T02:25:58;28.30;;;19.20;;
1977;SDS011;989;53.016;8.346;2024-03-22T02:28:24;28.90;;;19.50;;
1977;SDS011;989;53.016;8.346;2024-03-22T02:30:49;26.23;;;18.17;;
1977;SDS011;989;53.016;8.346;2024-03-22T02:33:14;30.70;;;21.47;;
1977;SDS011;989;53.016;8.346;2024-03-22T02:35:40;35.00;;;20.20;;
1977;SDS011;989;53.016;8.346;2024-03-22T02:38:05;31.47;;;19.00;;
1977;SDS011;989;53.016;8.346;2024-03-22T02:40:30;34.33;;;19.10;;
1977;SDS011;989;53.016;8.346;2024-03-22T02:42:56;30.67;;;19.17;;
1977;SDS011;989;53.016;8.346;2024-03-22T02:45:21;27.13;;;18.60;;
1977;SDS011;989;53.016;8.346;2024-03-22T02:47:46;27.93;;;19.57;;
1977;SDS011;989;53.016;8.346;2024-03-22T02:50:12;32.00;;;21.77;;
1977;SDS011;989;53.016;8.346;2024-03-22T02:52:37;29.83;;;18.53;;
1977;SDS011;989;53.016;8.346;2024-03-22T02:55:03;32.80;;;19.40;;
1977;SDS011;989;53.016;8.346;2024-03-22T02:57:28;30.40;;;19.50;;
1977;SDS011;989;53.016;8.346;2024-03-22T02:59:53;30.27;;;19.17;;
1977;SDS011;989;53.016;8.346;2024-03-22T03:02:19;32.03;;;20.37;;
1977;SDS011;989;53.016;8.346;2024-03-22T03:04:44;28.40;;;18.83;;
1977;SDS011;989;53.016;8.346;2024-03-22T03:07:10;27.90;;;18.13;;
1977;SDS011;989;53.016;8.346;2024-03-22T03:09:35;32.57;;;21.03;;
1977;SDS011;989;53.016;8.346;2024-03-22T03:12:01;28.43;;;19.40;;
1977;SDS011;989;53.016;8.346;2024-03-22T03:14:26;32.07;;;18.90;;
1977;SDS011;989;53.016;8.346;2024-03-22T03:16:51;30.83;;;19.47;;
1977;SDS011;989;53.016;8.346;2024-03-22T03:19:17;29.30;;;18.13;;
1977;SDS011;989;53.016;8.346;2024-03-22T03:21:42;25.87;;;17.73;;
1977;SDS011;989;53.016;8.346;2024-03-22T03:24:08;26.57;;;17.57;;
1977;SDS011;989;53.016;8.346;2024-03-22T03:26:34;26.67;;;19.00;;
1977;SDS011;989;53.016;8.346;2024-03-22T03:28:59;28.47;;;18.27;;
1977;SDS011;989;53.016;8.346;2024-03-22T03:31:25;34.90;;;18.80;;
1977;SDS011;989;53.016;8.346;2024-03-22T03:33:50;30.67;;;18.20;;
1977;SDS011;989;53.016;8.346;2024-03-22T03:36:16;30.90;;;18.73;;
1977;SDS011;989;53.016;8.346;2024-03-22T03:38:41;25.87;;;17.97;;
1977;SDS011;989;53.016;8.346;2024-03-22T03:41:06;28.17;;;17.60;;
1977;SDS011;989;53.016;8.346;2024-03-22T03:43:32;26.93;;;18.37;;
1977;SDS011;989;53.016;8.346;2024-03-22T03:45:57;35.20;;;18.63;;
1977;SDS011;989;53.016;8.346;2024-03-22T03:48:22;29.47;;;18.70;;
1977;SDS011;989;53.016;8.346;2024-03-22T03:50:54;27.87;;;18.90;;
1977;SDS011;989;53.016;8.346;2024-03-22T03:53:24;23.97;;;15.73;;
1977;SDS011;989;53.016;8.346;2024-03-22T03:55:49;34.63;;;19.33;;
1977;SDS011;989;53.016;8.346;2024-03-22T03:58:14;29.47;;;18.77;;
1977;SDS011;989;53.016;8.346;2024-03-22T04:00:41;28.20;;;19.13;;
1977;SDS011;989;53.016;8.346;2024-03-22T04:03:06;24.30;;;17.83;;
1977;SDS011;989;53.016;8.346;2024-03-22T04:05:33;30.77;;;18.17;;
1977;SDS011;989;53.016;8.346;2024-03-22T04:07:58;25.07;;;14.77;;
1977;SDS011;989;53.016;8.346;2024-03-22T04:10:23;29.03;;;17.27;;
1977;SDS011;989;53.016;8.346;2024-03-22T04:12:49;29.30;;;19.70;;
1977;SDS011;989;53.016;8.346;2024-03-22T04:15:14;26.87;;;16.70;;
1977;SDS011;989;53.016;8.346;2024-03-22T04:17:39;25.07;;;17.07;;
1977;SDS011;989;53.016;8.346;2024-03-22T04:20:05;34.93;;;17.37;;
1977;SDS011;989;53.016;8.346;2024-03-22T04:22:31;26.37;;;17.07;;
1977;SDS011;989;53.016;8.346;2024-03-22T04:24:56;33.40;;;18.37;;
1977;SDS011;989;53.016;8.346;2024-03-22T04:27:22;22.77;;;15.70;;
1977;SDS011;989;53.016;8.346;2024-03-22T04:29:47;27.23;;;15.90;;
1977;SDS011;989;53.016;8.346;2024-03-22T04:32:13;30.23;;;18.53;;
1977;SDS011;989;53.016;8.346;2024-03-22T04:34:41;23.27;;;15.80;;
1977;SDS011;989;53.016;8.346;2024-03-22T04:37:07;26.80;;;17.00;;
1977;SDS011;989;53.016;8.346;2024-03-22T04:39:33;28.07;;;17.53;;
1977;SDS011;989;53.016;8.346;2024-03-22T04:41:58;27.90;;;17.40;;
1977;SDS011;989;53.016;8.346;2024-03-22T04:44:23;25.33;;;14.60;;
1977;SDS011;989;53.016;8.346;2024-03-22T04:46:50;26.37;;;16.37;;
1977;SDS011;989;53.016;8.346;2024-03-22T04:49:15;27.50;;;17.37;;
1977;SDS011;989;53.016;8.346;2024-03-22T04:51:40;25.57;;;18.10;;
1977;SDS011;989;53.016;8.346;2024-03-22T04:54:06;24.60;;;16.87;;
1977;SDS011;989;53.016;8.346;2024-03-22T04:56:31;24.60;;;17.13;;
1977;SDS011;989;53.016;8.346;2024-03-22T04:58:57;26.30;;;16.83;;
1977;SDS011;989;53.016;8.346;2024-03-22T05:01:22;27.97;;;17.20;;
1977;SDS011;989;53.016;8.346;2024-03-22T05:03:48;25.87;;;16.33;;
1977;SDS011;989;53.016;8.346;2024-03-22T05:06:14;26.57;;;17.23;;
1977;SDS011;989;53.016;8.346;2024-03-22T05:08:39;26.33;;;16.60;;
1977;SDS011;989;53.016;8.346;2024-03-22T05:11:06;26.27;;;16.03;;
1977;SDS011;989;53.016;8.346;2024-03-22T05:13:32;24.07;;;17.70;;
1977;SDS011;989;53.016;8.346;2024-03-22T05:15:57;29.90;;;17.90;;
1977;SDS011;989;53.016;8.346;2024-03-22T05:18:23;28.60;;;17.27;;
1977;SDS011;989;53.016;8.346;2024-03-22T05:20:48;19.87;;;13.10;;
1977;SDS011;989;53.016;8.346;2024-03-22T05:23:13;27.20;;;16.47;;
1977;SDS011;989;53.016;8.346;2024-03-22T05:25:41;24.43;;;16.47;;
1977;SDS011;989;53.016;8.346;2024-03-22T05:28:06;26.07;;;16.53;;
1977;SDS011;989;53.016;8.346;2024-03-22T05:30:32;21.70;;;16.00;;
1977;SDS011;989;53.016;8.346;2024-03-22T05:32:57;25.33;;;16.17;;
1977;SDS011;989;53.016;8.346;2024-03-22T05:35:23;26.13;;;16.73;;
1977;SDS011;989;53.016;8.346;2024-03-22T05:37:48;23.20;;;15.60;;
1977;SDS011;989;53.016;8.346;2024-03-22T05:40:14;29.50;;;17.23;;
1977;SDS011;989;53.016;8.346;2024-03-22T05:42:41;23.47;;;16.07;;
1977;SDS011;989;53.016;8.346;2024-03-22T05:45:06;26.23;;;15.90;;
1977;SDS011;989;53.016;8.346;2024-03-22T05:47:31;32.33;;;18.63;;
1977;SDS011;989;53.016;8.346;2024-03-22T05:49:58;23.33;;;15.70;;
1977;SDS011;989;53.016;8.346;2024-03-22T05:52:23;22.10;;;15.17;;
1977;SDS011;989;53.016;8.346;2024-03-22T05:54:49;27.80;;;16.90;;
1977;SDS011;989;53.016;8.346;2024-03-22T05:57:14;26.60;;;17.40;;
1977;SDS011;989;53.016;8.346;2024-03-22T05:59:39;31.77;;;18.97;;
1977;SDS011;989;53.016;8.346;2024-03-22T06:02:05;27.20;;;16.93;;
1977;SDS011;989;53.016;8.346;2024-03-22T06:04:30;27.03;;;16.90;;
1977;SDS011;989;53.016;8.346;2024-03-22T06:06:56;28.17;;;18.40;;
1977;SDS011;989;53.016;8.346;2024-03-22T06:09:24;26.83;;;17.00;;
1977;SDS011;989;53.016;8.346;2024-03-22T06:11:59;30.27;;;18.60;;
1977;SDS011;989;53.016;8.346;2024-03-22T06:14:27;23.87;;;15.13;;
1977;SDS011;989;53.016;8.346;2024-03-22T06:16:52;29.63;;;17.93;;
1977;SDS011;989;53.016;8.346;2024-03-22T06:19:18;29.33;;;17.60;;
1977;SDS011;989;53.016;8.346;2024-03-22T06:21:43;22.73;;;15.20;;
1977;SDS011;989;53.016;8.346;2024-03-22T06:24:09;23.60;;;14.67;;
1977;SDS011;989;53.016;8.346;2024-03-22T06:26:34;25.73;;;17.00;;
1977;SDS011;989;53.016;8.346;2024-03-22T06:29:00;21.40;;;15.57;;
1977;SDS011;989;53.016;8.346;2024-03-22T06:31:25;26.27;;;16.50;;
1977;SDS011;989;53.016;8.346;2024-03-22T06:33:50;26.53;;;16.03;;
1977;SDS011;989;53.016;8.346;2024-03-22T06:36:16;22.50;;;15.50;;
1977;SDS011;989;53.016;8.346;2024-03-22T06:38:43;21.33;;;14.20;;
1977;SDS011;989;53.016;8.346;2024-03-22T06:41:08;24.23;;;14.70;;
1977;SDS011;989;53.016;8.346;2024-03-22T06:43:34;19.80;;;13.73;;
1977;SDS011;989;53.016;8.346;2024-03-22T06:45:59;17.07;;;13.87;;
1977;SDS011;989;53.016;8.346;2024-03-22T06:48:24;17.77;;;11.90;;
1977;SDS011;989;53.016;8.346;2024-03-22T06:50:50;16.40;;;12.33;;
1977;SDS011;989;53.016;8.346;2024-03-22T06:53:15;16.70;;;12.20;;
1977;SDS011;989;53.016;8.346;2024-03-22T06:55:40;17.80;;;11.53;;
1977;SDS011;989;53.016;8.346;2024-03-22T06:58:06;17.53;;;12.70;;
1977;SDS011;989;53.016;8.346;2024-03-22T07:00:31;15.67;;;14.03;;
1977;SDS011;989;53.016;8.346;2024-03-22T07:02:59;20.03;;;14.50;;
1977;SDS011;989;53.016;8.346;2024-03-22T07:05:27;14.17;;;11.97;;
1977;SDS011;989;53.016;8.346;2024-03-22T07:07:54;15.43;;;13.07;;
1977;SDS011;989;53.016;8.346;2024-03-22T07:10:22;17.63;;;12.73;;
1977;SDS011;989;53.016;8.346;2024-03-22T07:12:49;18.40;;;12.63;;
1977;SDS011;989;53.016;8.346;2024-03-22T07:15:15;14.20;;;10.50;;
1977;SDS011;989;53.016;8.346;2024-03-22T07:17:40;19.00;;;12.73;;
1977;SDS011;989;53.016;8.346;2024-03-22T07:20:06;17.17;;;11.93;;
1977;SDS011;989;53.016;8.346;2024-03-22T07:22:31;15.50;;;11.50;;
1977;SDS011;989;53.016;8.346;2024-03-22T07:24:57;13.07;;;11.50;;
1977;SDS011;989;53.016;8.346;2024-03-22T07:27:22;16.80;;;10.60;;
1977;SDS011;989;53.016;8.346;2024-03-22T07:29:48;12.10;;;10.00;;
1977;SDS011;989;53.016;8.346;2024-03-22T07:32:13;13.83;;;11.80;;
1977;SDS011;989;53.016;8.346;2024-03-22T07:34:38;10.33;;;7.77;;
1977;SDS011;989;53.016;8.346;2024-03-22T07:37:04;16.40;;;11.00;;
1977;SDS011;989;53.016;8.346;2024-03-22T07:39:29;14.47;;;11.20;;
1977;SDS011;989;53.016;8.346;2024-03-22T07:41:55;12.20;;;8.87;;
1977;SDS011;989;53.016;8.346;2024-03-22T07:44:20;12.10;;;9.90;;
1977;SDS011;989;53.016;8.346;2024-03-22T07:46:46;17.50;;;11.93;;
1977;SDS011;989;53.016;8.346;2024-03-22T07:49:14;10.10;;;9.10;;
1977;SDS011;989;53.016;8.346;2024-03-22T07:51:39;12.47;;;10.63;;
1977;SDS011;989;53.016;8.346;2024-03-22T07:54:05;14.13;;;10.60;;
1977;SDS011;989;53.016;8.346;2024-03-22T07:56:30;13.73;;;11.67;;
1977;SDS011;989;53.016;8.346;2024-03-22T07:58:56;13.27;;;10.00;;
1977;SDS011;989;53.016;8.346;2024-03-22T08:01:21;15.20;;;12.13;;
1977;SDS011;989;53.016;8.346;2024-03-22T08:03:47;14.07;;;10.97;;
1977;SDS011;989;53.016;8.346;2024-03-22T08:06:12;15.13;;;12.80;;
1977;SDS011;989;53.016;8.346;2024-03-22T08:08:38;15.63;;;11.77;;
1977;SDS011;989;53.016;8.346;2024-03-22T08:11:03;15.87;;;11.43;;
1977;SDS011;989;53.016;8.346;2024-03-22T08:13:29;15.87;;;11.40;;
1977;SDS011;989;53.016;8.346;2024-03-22T08:15:54;17.57;;;11.77;;
1977;SDS011;989;53.016;8.346;2024-03-22T08:18:19;7.07;;;6.03;;
1977;SDS011;989;53.016;8.346;2024-03-22T08:20:45;17.27;;;9.27;;
1977;SDS011;989;53.016;8.346;2024-03-22T08:23:10;17.50;;;12.17;;
1977;SDS011;989;53.016;8.346;2024-03-22T08:25:36;13.93;;;11.93;;
1977;SDS011;989;53.016;8.346;2024-03-22T08:28:02;17.40;;;12.87;;
1977;SDS011;989;53.016;8.346;2024-03-22T08:30:27;15.03;;;12.43;;
1977;SDS011;989;53.016;8.346;2024-03-22T08:32:52;13.30;;;11.53;;
1977;SDS011;989;53.016;8.346;2024-03-22T08:35:18;20.90;;;13.13;;
1977;SDS011;989;53.016;8.346;2024-03-22T08:37:43;20.50;;;13.40;;
1977;SDS011;989;53.016;8.346;2024-03-22T08:40:09;22.73;;;13.30;;
1977;SDS011;989;53.016;8.346;2024-03-22T08:42:35;18.63;;;12.37;;
1977;SDS011;989;53.016;8.346;2024-03-22T08:45:01;9.50;;;8.10;;
1977;SDS011;989;53.016;8.346;2024-03-22T08:47:26;16.13;;;12.30;;
1977;SDS011;989;53.016;8.346;2024-03-22T08:49:52;9.90;;;8.93;;
1977;SDS011;989;53.016;8.346;2024-03-22T08:52:17;17.20;;;12.30;;
1977;SDS011;989;53.016;8.346;2024-03-22T08:54:42;14.27;;;9.10;;
1977;SDS011;989;53.016;8.346;2024-03-22T08:57:08;15.00;;;10.13;;
1977;SDS011;989;53.016;8.346;2024-03-22T08:59:33;8.70;;;7.80;;
1977;SDS011;989;53.016;8.346;2024-03-22T09:02:00;14.03;;;9.50;;
1977;SDS011;989;53.016;8.346;2024-03-22T09:04:25;15.97;;;11.97;;
1977;SDS011;989;53.016;8.346;2024-03-22T09:06:51;15.93;;;11.23;;
1977;SDS011;989;53.016;8.346;2024-03-22T09:09:16;16.93;;;12.30;;
1977;SDS011;989;53.016;8.346;2024-03-22T09:11:42;15.43;;;10.50;;
1977;SDS011;989;53.016;8.346;2024-03-22T09:14:07;11.70;;;7.87;;
1977;SDS011;989;53.016;8.346;2024-03-22T09:16:33;14.10;;;11.93;;
1977;SDS011;989;53.016;8.346;2024-03-22T09:18:58;11.77;;;8.80;;
1977;SDS011;989;53.016;8.346;2024-03-22T09:21:23;22.03;;;13.57;;
1977;SDS011;989;53.016;8.346;2024-03-22T09:23:49;18.33;;;12.13;;
1977;SDS011;989;53.016;8.346;2024-03-22T09:26:15;15.17;;;9.67;;
1977;SDS011;989;53.016;8.346;2024-03-22T09:28:40;11.63;;;7.50;;
1977;SDS011;989;53.016;8.346;2024-03-22T09:31:07;15.80;;;11.27;;
1977;SDS011;989;53.016;8.346;2024-03-22T09:33:33;14.77;;;11.13;;
1977;SDS011;989;53.016;8.346;2024-03-22T09:35:59;7.10;;;6.03;;
1977;SDS011;989;53.016;8.346;2024-03-22T09:38:24;12.57;;;9.80;;
1977;SDS011;989;53.016;8.346;2024-03-22T09:40:50;11.47;;;9.20;;
1977;SDS011;989;53.016;8.346;2024-03-22T09:43:19;6.97;;;5.70;;
1977;SDS011;989;53.016;8.346;2024-03-22T09:45:45;15.53;;;10.03;;
1977;SDS011;989;53.016;8.346;2024-03-22T09:48:12;9.60;;;7.37;;
1977;SDS011;989;53.016;8.346;2024-03-22T09:50:40;11.53;;;8.13;;
1977;SDS011;989;53.016;8.346;2024-03-22T09:53:06;7.47;;;6.77;;
1977;SDS011;989;53.016;8.346;2024-03-22T09:55:31;7.80;;;6.10;;
1977;SDS011;989;53.016;8.346;2024-03-22T09:57:57;6.87;;;5.83;;
1977;SDS011;989;53.016;8.346;2024-03-22T10:00:23;7.87;;;5.93;;
1977;SDS011;989;53.016;8.346;2024-03-22T10:02:51;9.63;;;6.53;;
1977;SDS011;989;53.016;8.346;2024-03-22T10:05:16;7.87;;;7.03;;
1977;SDS011;989;53.016;8.346;2024-03-22T10:07:43;11.07;;;5.67;;
1977;SDS011;989;53.016;8.346;2024-03-22T10:10:08;3.83;;;3.53;;
1977;SDS011;989;53.016;8.346;2024-03-22T10:12:35;5.10;;;4.60;;
1977;SDS011;989;53.016;8.346;2024-03-22T10:15:00;6.57;;;5.50;;
1977;SDS011;989;53.016;8.346;2024-03-22T10:17:26;8.03;;;6.73;;
1977;SDS011;989;53.016;8.346;2024-03-22T10:19:52;7.07;;;6.47;;
1977;SDS011;989;53.016;8.346;2024-03-22T10:22:17;4.40;;;4.10;;
1977;SDS011;989;53.016;8.346;2024-03-22T10:24:43;8.83;;;6.00;;
1977;SDS011;989;53.016;8.346;2024-03-22T10:27:09;6.37;;;5.57;;
1977;SDS011;989;53.016;8.346;2024-03-22T10:29:35;7.27;;;6.57;;
1977;SDS011;989;53.016;8.346;2024-03-22T10:32:01;5.43;;;4.93;;
1977;SDS011;989;53.016;8.346;2024-03-22T10:34:27;6.40;;;5.43;;
1977;SDS011;989;53.016;8.346;2024-03-22T10:36:53;6.17;;;5.60;;
1977;SDS011;989;53.016;8.346;2024-03-22T10:39:20;5.43;;;4.60;;
1977;SDS011;989;53.016;8.346;2024-03-22T10:41:47;5.90;;;5.40;;
1977;SDS011;989;53.016;8.346;2024-03-22T10:44:13;4.30;;;4.00;;
1977;SDS011;989;53.016;8.346;2024-03-22T10:46:42;4.17;;;3.83;;
1977;SDS011;989;53.016;8.346;2024-03-22T10:49:09;3.90;;;3.13;;
1977;SDS011;989;53.016;8.346;2024-03-22T10:51:42;3.37;;;3.07;;
1977;SDS011;989;53.016;8.346;2024-03-22T10:54:09;4.40;;;4.10;;
1977;SDS011;989;53.016;8.346;2024-03-22T10:56:37;7.20;;;3.77;;
1977;SDS011;989;53.016;8.346;2024-03-22T10:59:03;3.10;;;2.90;;
1977;SDS011;989;53.016;8.346;2024-03-22T11:01:28;4.87;;;4.40;;
1977;SDS011;989;53.016;8.346;2024-03-22T11:04:04;4.93;;;4.53;;
1977;SDS011;989;53.016;8.346;2024-03-22T11:06:36;4.80;;;4.50;;
1977;SDS011;989;53.016;8.346;2024-03-22T11:09:01;4.87;;;4.40;;
1977;SDS011;989;53.016;8.346;2024-03-22T11:11:30;4.60;;;4.27;;
1977;SDS011;989;53.016;8.346;2024-03-22T11:13:56;4.17;;;3.87;;
1977;SDS011;989;53.016;8.346;2024-03-22T11:16:22;4.57;;;4.13;;
1977;SDS011;989;53.016;8.346;2024-03-22T11:18:47;4.47;;;4.07;;
1977;SDS011;989;53.016;8.346;2024-03-22T11:21:14;3.80;;;3.50;;
1977;SDS011;989;53.016;8.346;2024-03-22T11:23:39;4.10;;;3.80;;
1977;SDS011;989;53.016;8.346;2024-03-22T11:26:05;5.90;;;4.40;;
1977;SDS011;989;53.016;8.346;2024-03-22T11:28:31;4.10;;;3.80;;
1977;SDS011;989;53.016;8.346;2024-03-22T11:30:57;5.20;;;4.20;;
1977;SDS011;989;53.016;8.346;2024-03-22T11:33:22;3.60;;;3.30;;
1977;SDS011;989;53.016;8.346;2024-03-22T11:35:47;5.07;;;3.90;;
1977;SDS011;989;53.016;8.346;2024-03-22T11:38:14;3.60;;;3.40;;
1977;SDS011;989;53.016;8.346;2024-03-22T11:40:40;3.60;;;2.90;;
1977;SDS011;989;53.016;8.346;2024-03-22T11:43:06;3.13;;;2.93;;
1977;SDS011;989;53.016;8.346;2024-03-22T11:45:31;3.40;;;3.20;;
1977;SDS011;989;53.016;8.346;2024-03-22T11:48:01;2.23;;;2.13;;
1977;SDS011;989;53.016;8.346;2024-03-22T11:50:27;3.20;;;3.00;;
1977;SDS011;989;53.016;8.346;2024-03-22T11:52:52;3.60;;;2.70;;
1977;SDS011;989;53.016;8.346;2024-03-22T11:55:17;2.83;;;2.63;;
1977;SDS011;989;53.016;8.346;2024-03-22T11:57:47;2.70;;;2.57;;
1977;SDS011;989;53.016;8.346;2024-03-22T12:00:17;2.50;;;2.40;;
1977;SDS011;989;53.016;8.346;2024-03-22T12:02:44;4.67;;;3.27;;
1977;SDS011;989;53.016;8.346;2024-03-22T12:05:09;2.70;;;2.60;;
1977;SDS011;989;53.016;8.346;2024-03-22T12:07:35;2.10;;;2.00;;
1977;SDS011;989;53.016;8.346;2024-03-22T12:10:00;1.40;;;1.40;;
1977;SDS011;989;53.016;8.346;2024-03-22T12:12:26;1.70;;;1.70;;
1977;SDS011;989;53.016;8.346;2024-03-22T12:14:52;1.77;;;1.67;;
1977;SDS011;989;53.016;8.346;2024-03-22T12:17:17;2.23;;;2.13;;
1977;SDS011;989;53.016;8.346;2024-03-22T12:19:42;1.97;;;1.87;;
1977;SDS011;989;53.016;8.346;2024-03-22T12:22:08;1.93;;;1.83;;
1977;SDS011;989;53.016;8.346;2024-03-22T12:24:34;2.73;;;2.57;;
1977;SDS011;989;53.016;8.346;2024-03-22T12:26:59;1.90;;;1.80;;
1977;SDS011;989;53.016;8.346;2024-03-22T12:29:24;2.10;;;2.00;;
1977;SDS011;989;53.016;8.346;2024-03-22T12:31:50;1.63;;;1.57;;
1977;SDS011;989;53.016;8.346;2024-03-22T12:34:17;1.50;;;1.50;;
1977;SDS011;989;53.016;8.346;2024-03-22T12:36:42;2.10;;;2.00;;
1977;SDS011;989;53.016;8.346;2024-03-22T12:39:08;1.80;;;1.80;;
1977;SDS011;989;53.016;8.346;2024-03-22T12:41:33;1.90;;;1.80;;
1977;SDS011;989;53.016;8.346;2024-03-22T12:43:59;2.40;;;2.30;;
1977;SDS011;989;53.016;8.346;2024-03-22T12:46:25;2.00;;;1.90;;
1977;SDS011;989;53.016;8.346;2024-03-22T12:48:50;1.50;;;1.40;;
1977;SDS011;989;53.016;8.346;2024-03-22T12:51:16;1.50;;;1.50;;
1977;SDS011;989;53.016;8.346;2024-03-22T12:53:41;1.67;;;1.57;;
1977;SDS011;989;53.016;8.346;2024-03-22T12:56:07;1.97;;;1.87;;
1977;SDS011;989;53.016;8.346;2024-03-22T12:58:33;1.73;;;1.63;;
1977;SDS011;989;53.016;8.346;2024-03-22T13:00:58;1.57;;;1.57;;
1977;SDS011;989;53.016;8.346;2024-03-22T13:03:27;1.87;;;1.80;;
1977;SDS011;989;53.016;8.346;2024-03-22T13:05:53;1.70;;;1.60;;
1977;SDS011;989;53.016;8.346;2024-03-22T13:08:19;1.23;;;1.23;;
1977;SDS011;989;53.016;8.346;2024-03-22T13:10:44;1.17;;;1.17;;
1977;SDS011;989;53.016;8.346;2024-03-22T13:13:10;1.40;;;1.30;;
1977;SDS011;989;53.016;8.346;2024-03-22T13:15:36;1.47;;;1.47;;
1977;SDS011;989;53.016;8.346;2024-03-22T13:18:05;1.10;;;1.00;;
1977;SDS011;989;53.016;8.346;2024-03-22T13:20:30;1.20;;;1.20;;
1977;SDS011;989;53.016;8.346;2024-03-22T13:22:56;1.20;;;1.20;;
1977;SDS011;989;53.016;8.346;2024-03-22T13:25:21;1.03;;;1.03;;
1977;SDS011;989;53.016;8.346;2024-03-22T13:27:47;1.30;;;1.30;;
1977;SDS011;989;53.016;8.346;2024-03-22T13:30:12;1.10;;;1.10;;
1977;SDS011;989;53.016;8.346;2024-03-22T13:32:39;1.27;;;1.27;;
1977;SDS011;989;53.016;8.346;2024-03-22T13:35:05;1.13;;;1.13;;
1977;SDS011;989;53.016;8.346;2024-03-22T13:37:31;1.33;;;1.33;;
1977;SDS011;989;53.016;8.346;2024-03-22T13:39:57;1.37;;;1.37;;
1977;SDS011;989;53.016;8.346;2024-03-22T13:42:22;0.97;;;0.97;;
1977;SDS011;989;53.016;8.346;2024-03-22T13:44:48;1.20;;;1.10;;
1977;SDS011;989;53.016;8.346;2024-03-22T13:47:13;1.50;;;1.40;;
1977;SDS011;989;53.016;8.346;2024-03-22T13:49:39;1.20;;;1.20;;
1977;SDS011;989;53.016;8.346;2024-03-22T13:52:08;1.27;;;1.27;;
1977;SDS011;989;53.016;8.346;2024-03-22T13:54:33;1.10;;;1.10;;
1977;SDS011;989;53.016;8.346;2024-03-22T13:56:58;1.03;;;1.03;;
1977;SDS011;989;53.016;8.346;2024-03-22T13:59:25;1.20;;;1.20;;
1977;SDS011;989;53.016;8.346;2024-03-22T14:01:51;1.00;;;1.00;;
1977;SDS011;989;53.016;8.346;2024-03-22T14:04:16;1.20;;;1.20;;
1977;SDS011;989;53.016;8.346;2024-03-22T14:06:41;1.07;;;1.07;;
1977;SDS011;989;53.016;8.346;2024-03-22T14:09:07;1.33;;;1.23;;
1977;SDS011;989;53.016;8.346;2024-03-22T14:11:35;1.00;;;1.00;;
1977;SDS011;989;53.016;8.346;2024-03-22T14:14:01;0.90;;;0.90;;
1977;SDS011;989;53.016;8.346;2024-03-22T14:16:26;1.03;;;1.03;;
1977;SDS011;989;53.016;8.346;2024-03-22T14:18:52;1.00;;;1.00;;
1977;SDS011;989;53.016;8.346;2024-03-22T14:21:17;0.90;;;0.90;;
1977;SDS011;989;53.016;8.346;2024-03-22T14:23:46;0.77;;;0.77;;
1977;SDS011;989;53.016;8.346;2024-03-22T14:26:12;0.80;;;0.80;;
1977;SDS011;989;53.016;8.346;2024-03-22T14:28:38;0.90;;;0.90;;
1977;SDS011;989;53.016;8.346;2024-03-22T14:31:05;0.90;;;0.90;;
1977;SDS011;989;53.016;8.346;2024-03-22T14:33:34;0.70;;;0.70;;
1977;SDS011;989;53.016;8.346;2024-03-22T14:36:02;0.90;;;0.90;;
1977;SDS011;989;53.016;8.346;2024-03-22T14:38:28;0.60;;;0.60;;
1977;SDS011;989;53.016;8.346;2024-03-22T14:40:54;0.80;;;0.80;;
1977;SDS011;989;53.016;8.346;2024-03-22T14:43:20;1.10;;;1.10;;
1977;SDS011;989;53.016;8.346;2024-03-22T14:45:48;0.77;;;0.77;;
1977;SDS011;989;53.016;8.346;2024-03-22T14:48:14;0.90;;;0.90;;
1977;SDS011;989;53.016;8.346;2024-03-22T14:50:40;0.70;;;0.70;;
1977;SDS011;989;53.016;8.346;2024-03-22T14:53:05;0.63;;;0.63;;
1977;SDS011;989;53.016;8.346;2024-03-22T14:55:31;0.70;;;0.70;;
1977;SDS011;989;53.016;8.346;2024-03-22T14:57:57;0.60;;;0.60;;
1977;SDS011;989;53.016;8.346;2024-03-22T15:00:22;0.50;;;0.50;;
1977;SDS011;989;53.016;8.346;2024-03-22T15:02:52;0.50;;;0.50;;